Flight Track Log - Related Links

Times and Time Zones

All times are in EDT time to prevent confusion due to time zone crossing. See the N465TP flight status page for this flight to view local times or setup timezone preferences in your user account.

Time Position Orientation Groundspeed Altitude Reporting Facility
EDT Latitude Longitude Course Direction KTS MPH feet Rate Location/Type
Tue 10:43:28 AM 44.5622 -109.0017 14° North 146 168 8,600  Level Salt Lake Center
Tue 10:44:29 AM 44.6056 -108.9867 14° North 154 177 10,000 1,415 Climbing Salt Lake Center
Tue 10:45:31 AM 44.6481 -108.9700 16° North 157 181 11,500 1,597 Climbing Salt Lake Center
Tue 10:46:33 AM 44.6978 -108.9519 14° North 156 180 13,300 1,452 Climbing Salt Lake Center
Tue 10:47:35 AM 44.7397 -108.9358 15° North 155 178 14,500 774 Climbing Salt Lake Center
Tue 10:48:37 AM 44.7872 -108.9178 15° North 168 193 14,900 195 Climbing Salt Lake Center
Tue 10:49:38 AM 44.8436 -108.8981 14° North 193 222 14,900  Level Salt Lake Center
Tue 10:50:40 AM 44.9014 -108.8783 14° North 209 241 14,900 48 Level Salt Lake Center
Tue 10:51:42 AM 44.9567 -108.8578 15° North 207 238 15,000 48 Climbing Salt Lake Center
Tue 10:52:44 AM 45.0133 -108.8375 14° North 207 238 15,000  Level Salt Lake Center
Tue 10:53:45 AM 45.0797 -108.8128 15° North 207 238 15,000  Level Salt Lake Center
Tue 10:54:47 AM 45.1322 -108.7928 15° North 206 237 15,000  Level Salt Lake Center
Tue 10:55:49 AM 45.1933 -108.7700 15° North 207 238 15,000  Level Salt Lake Center
Tue 10:56:51 AM 45.2472 -108.7364 24° Northeast 214 246 15,000  Level Salt Lake Center
Tue 10:57:53 AM 45.3044 -108.6981 25° Northeast 214 246 15,000  Level Salt Lake Center
Tue 10:58:54 AM 45.3547 -108.6664 24° Northeast 203 234 15,000 -49 Level Salt Lake Center
Tue 10:59:56 AM 45.4097 -108.6317 24° Northeast 200 230 14,900 -726 Descending Salt Lake Center
Tue 11:00:58 AM 45.4625 -108.5981 24° Northeast 207 238 13,500 -1,452 Descending Salt Lake Center
Tue 11:02:00 AM 45.5172 -108.5633 24° Northeast 202 232 11,900 -1,500 Descending Salt Lake Center
Tue 11:03:02 AM 45.5683 -108.5353 21° North 202 232 10,400 -1,500 Descending Salt Lake Center
Tue 11:04:04 AM 45.6294 -108.5272 North 206 237 8,800 -1,500 Descending Salt Lake Center
Tue 11:05:06 AM 45.6831 -108.5144 North 199 229 7,300 -1,597 Descending Salt Lake Center
Tue 11:06:08 AM 45.7375 -108.5039 North 187 215 5,500 -1,403 Descending Salt Lake Center
Tue 11:07:10 AM 45.7811 -108.4956 North 157 181 4,400 -1,016 Descending Salt Lake Center
Tue 11:08:12 AM 45.8036 -108.5219 321° Northwest 100 115 3,400 -968 Descending Salt Lake Center
Tue 11:10:00 AM 45.8077 -108.5429 246° West  Level Estimated

Login

Don't have an account? Register now (free) for customized features, flight alerts, and more!